sensor_id;sensor_type;location;lat;lon;timestamp;pressure;altitude;pressure_sealevel;temperature;humidity
46574;BME280;32299;53.366;-1.544;2023-01-31T00:00:05;99614.15;;;5.86;54.43
46574;BME280;32299;53.366;-1.544;2023-01-31T00:02:32;99604.69;;;5.35;55.60
46574;BME280;32299;53.366;-1.544;2023-01-31T00:05:00;99596.16;;;5.35;55.83
46574;BME280;32299;53.366;-1.544;2023-01-31T00:07:27;99584.87;;;5.89;54.90
46574;BME280;32299;53.366;-1.544;2023-01-31T00:09:54;99581.14;;;6.08;54.63
46574;BME280;32299;53.366;-1.544;2023-01-31T00:12:21;99576.20;;;5.60;56.17
46574;BME280;32299;53.366;-1.544;2023-01-31T00:14:48;99569.83;;;5.55;56.27
46574;BME280;32299;53.366;-1.544;2023-01-31T00:17:15;99563.78;;;4.56;58.63
46574;BME280;32299;53.366;-1.544;2023-01-31T00:19:42;99560.41;;;5.33;57.60
46574;BME280;32299;53.366;-1.544;2023-01-31T00:22:09;99544.31;;;4.89;57.91
46574;BME280;32299;53.366;-1.544;2023-01-31T00:24:36;99529.54;;;4.87;58.31
46574;BME280;32299;53.366;-1.544;2023-01-31T00:27:03;99518.99;;;3.77;60.52
46574;BME280;32299;53.366;-1.544;2023-01-31T00:29:30;99506.17;;;3.93;61.33
46574;BME280;32299;53.366;-1.544;2023-01-31T00:31:57;99502.22;;;4.08;60.77
46574;BME280;32299;53.366;-1.544;2023-01-31T00:34:24;99510.48;;;3.52;62.83
46574;BME280;32299;53.366;-1.544;2023-01-31T00:36:51;99509.01;;;4.29;61.22
46574;BME280;32299;53.366;-1.544;2023-01-31T00:39:18;99508.37;;;4.26;61.46
46574;BME280;32299;53.366;-1.544;2023-01-31T00:41:46;99504.95;;;3.75;62.01
46574;BME280;32299;53.366;-1.544;2023-01-31T00:44:13;99502.33;;;3.95;60.89
46574;BME280;32299;53.366;-1.544;2023-01-31T00:46:40;99489.11;;;4.02;61.52
46574;BME280;32299;53.366;-1.544;2023-01-31T00:49:07;99485.59;;;3.89;61.97
46574;BME280;32299;53.366;-1.544;2023-01-31T00:51:34;99473.09;;;3.54;63.60
46574;BME280;32299;53.366;-1.544;2023-01-31T00:54:01;99467.17;;;3.55;63.47
46574;BME280;32299;53.366;-1.544;2023-01-31T00:56:28;99464.61;;;3.08;65.16
46574;BME280;32299;53.366;-1.544;2023-01-31T00:58:54;99459.51;;;3.35;64.58
46574;BME280;32299;53.366;-1.544;2023-01-31T01:01:23;99464.83;;;3.41;65.14
46574;BME280;32299;53.366;-1.544;2023-01-31T01:03:51;99460.14;;;3.58;65.02
46574;BME280;32299;53.366;-1.544;2023-01-31T01:06:19;99454.76;;;4.59;61.24
46574;BME280;32299;53.366;-1.544;2023-01-31T01:08:47;99445.01;;;3.55;63.94
46574;BME280;32299;53.366;-1.544;2023-01-31T01:11:18;99433.25;;;3.08;67.58
46574;BME280;32299;53.366;-1.544;2023-01-31T01:13:46;99429.33;;;3.07;65.83
46574;BME280;32299;53.366;-1.544;2023-01-31T01:16:17;99416.87;;;3.10;68.38
46574;BME280;32299;53.366;-1.544;2023-01-31T01:18:45;99409.29;;;3.92;64.82
46574;BME280;32299;53.366;-1.544;2023-01-31T01:21:15;99414.41;;;3.20;67.81
46574;BME280;32299;53.366;-1.544;2023-01-31T01:23:43;99413.11;;;3.16;68.64
46574;BME280;32299;53.366;-1.544;2023-01-31T01:26:13;99411.69;;;2.78;68.35
46574;BME280;32299;53.366;-1.544;2023-01-31T01:28:40;99415.75;;;3.22;69.47
46574;BME280;32299;53.366;-1.544;2023-01-31T01:31:09;99411.43;;;2.55;71.54
46574;BME280;32299;53.366;-1.544;2023-01-31T01:33:36;99413.08;;;3.25;69.31
46574;BME280;32299;53.366;-1.544;2023-01-31T01:36:05;99403.02;;;3.52;66.27
46574;BME280;32299;53.366;-1.544;2023-01-31T01:38:33;99398.99;;;3.86;67.29
46574;BME280;32299;53.366;-1.544;2023-01-31T01:41:01;99402.39;;;3.56;67.06
46574;BME280;32299;53.366;-1.544;2023-01-31T01:43:47;99403.24;;;4.11;66.39
46574;BME280;32299;53.366;-1.544;2023-01-31T01:46:17;99398.17;;;3.07;69.12
46574;BME280;32299;53.366;-1.544;2023-01-31T01:48:52;99392.19;;;4.30;64.73
46574;BME280;32299;53.366;-1.544;2023-01-31T01:51:20;99391.95;;;3.38;68.12
46574;BME280;32299;53.366;-1.544;2023-01-31T01:53:51;99380.55;;;3.54;67.42
46574;BME280;32299;53.366;-1.544;2023-01-31T01:56:22;99385.94;;;3.63;69.43
46574;BME280;32299;53.366;-1.544;2023-01-31T01:58:54;99379.10;;;4.19;67.31
46574;BME280;32299;53.366;-1.544;2023-01-31T02:01:25;99373.77;;;3.34;69.65
46574;BME280;32299;53.366;-1.544;2023-01-31T02:03:54;99384.96;;;3.39;69.90
46574;BME280;32299;53.366;-1.544;2023-01-31T02:06:22;99386.30;;;4.37;66.86
46574;BME280;32299;53.366;-1.544;2023-01-31T02:08:50;99375.63;;;3.78;68.83
46574;BME280;32299;53.366;-1.544;2023-01-31T02:11:21;99376.66;;;3.36;68.64
46574;BME280;32299;53.366;-1.544;2023-01-31T02:13:52;99365.06;;;3.77;70.23
46574;BME280;32299;53.366;-1.544;2023-01-31T02:16:20;99361.59;;;3.85;69.34
46574;BME280;32299;53.366;-1.544;2023-01-31T02:18:47;99369.42;;;3.18;72.36
46574;BME280;32299;53.366;-1.544;2023-01-31T02:22:22;99372.38;;;4.65;70.88
46574;BME280;32299;53.366;-1.544;2023-01-31T02:25:17;99380.39;;;3.68;72.55
46574;BME280;32299;53.366;-1.544;2023-01-31T02:28:10;99377.16;;;5.01;70.78
46574;BME280;32299;53.366;-1.544;2023-01-31T02:30:59;99380.23;;;4.30;73.04
46574;BME280;32299;53.366;-1.544;2023-01-31T02:33:35;99377.35;;;4.54;72.11
46574;BME280;32299;53.366;-1.544;2023-01-31T02:36:15;99375.19;;;4.42;71.96
46574;BME280;32299;53.366;-1.544;2023-01-31T02:38:54;99377.15;;;3.83;75.16
46574;BME280;32299;53.366;-1.544;2023-01-31T02:41:25;99373.59;;;4.47;72.14
46574;BME280;32299;53.366;-1.544;2023-01-31T02:43:56;99368.94;;;3.99;72.22
46574;BME280;32299;53.366;-1.544;2023-01-31T02:46:33;99361.97;;;3.88;73.74
46574;BME280;32299;53.366;-1.544;2023-01-31T02:49:05;99365.39;;;4.58;71.28
46574;BME280;32299;53.366;-1.544;2023-01-31T02:51:37;99358.00;;;4.24;73.02
46574;BME280;32299;53.366;-1.544;2023-01-31T02:54:10;99350.20;;;4.82;72.11
46574;BME280;32299;53.366;-1.544;2023-01-31T02:56:40;99344.75;;;4.52;72.85
46574;BME280;32299;53.366;-1.544;2023-01-31T02:59:14;99346.91;;;5.45;69.55
46574;BME280;32299;53.366;-1.544;2023-01-31T03:01:46;99352.12;;;4.76;70.36
46574;BME280;32299;53.366;-1.544;2023-01-31T03:04:14;99350.89;;;4.66;71.58
46574;BME280;32299;53.366;-1.544;2023-01-31T03:06:49;99343.46;;;4.24;74.12
46574;BME280;32299;53.366;-1.544;2023-01-31T03:09:20;99333.43;;;4.74;73.21
46574;BME280;32299;53.366;-1.544;2023-01-31T03:11:54;99332.09;;;4.75;74.32
46574;BME280;32299;53.366;-1.544;2023-01-31T03:14:30;99326.42;;;4.35;74.02
46574;BME280;32299;53.366;-1.544;2023-01-31T03:17:03;99330.07;;;3.81;78.97
46574;BME280;32299;53.366;-1.544;2023-01-31T03:19:37;99331.85;;;4.25;78.86
46574;BME280;32299;53.366;-1.544;2023-01-31T03:22:09;99336.04;;;4.92;75.53
46574;BME280;32299;53.366;-1.544;2023-01-31T03:24:39;99335.59;;;4.72;75.54
46574;BME280;32299;53.366;-1.544;2023-01-31T03:27:07;99331.63;;;4.55;75.04
46574;BME280;32299;53.366;-1.544;2023-01-31T03:29:35;99333.21;;;4.31;77.27
46574;BME280;32299;53.366;-1.544;2023-01-31T03:32:07;99321.06;;;4.85;75.46
46574;BME280;32299;53.366;-1.544;2023-01-31T03:34:37;99317.26;;;4.74;77.21
46574;BME280;32299;53.366;-1.544;2023-01-31T03:37:10;99321.88;;;4.25;76.89
46574;BME280;32299;53.366;-1.544;2023-01-31T03:39:42;99307.67;;;4.39;75.97
46574;BME280;32299;53.366;-1.544;2023-01-31T03:42:15;99317.28;;;4.98;75.69
46574;BME280;32299;53.366;-1.544;2023-01-31T03:44:50;99313.84;;;4.32;78.08
46574;BME280;32299;53.366;-1.544;2023-01-31T03:47:24;99310.67;;;5.39;74.96
46574;BME280;32299;53.366;-1.544;2023-01-31T03:49:52;99305.16;;;4.89;74.59
46574;BME280;32299;53.366;-1.544;2023-01-31T03:52:26;99305.02;;;5.69;71.27
46574;BME280;32299;53.366;-1.544;2023-01-31T03:54:58;99297.07;;;5.95;70.88
46574;BME280;32299;53.366;-1.544;2023-01-31T03:57:30;99302.68;;;5.42;72.97
46574;BME280;32299;53.366;-1.544;2023-01-31T03:59:59;99297.27;;;4.95;74.26
46574;BME280;32299;53.366;-1.544;2023-01-31T04:02:31;99293.23;;;5.27;71.88
46574;BME280;32299;53.366;-1.544;2023-01-31T04:05:04;99298.11;;;4.36;75.78
46574;BME280;32299;53.366;-1.544;2023-01-31T04:07:32;99293.52;;;5.65;69.07
46574;BME280;32299;53.366;-1.544;2023-01-31T04:09:59;99299.73;;;5.64;69.98
46574;BME280;32299;53.366;-1.544;2023-01-31T04:12:27;99288.69;;;6.59;68.20
46574;BME280;32299;53.366;-1.544;2023-01-31T04:14:54;99292.71;;;5.73;69.95
46574;BME280;32299;53.366;-1.544;2023-01-31T04:17:21;99297.35;;;5.57;71.08
46574;BME280;32299;53.366;-1.544;2023-01-31T04:19:48;99301.16;;;5.54;72.41
46574;BME280;32299;53.366;-1.544;2023-01-31T04:22:15;99296.91;;;5.36;72.62
46574;BME280;32299;53.366;-1.544;2023-01-31T04:24:42;99294.79;;;6.58;70.70
46574;BME280;32299;53.366;-1.544;2023-01-31T04:27:09;99293.23;;;6.14;70.31
46574;BME280;32299;53.366;-1.544;2023-01-31T04:29:36;99296.41;;;5.21;73.70
46574;BME280;32299;53.366;-1.544;2023-01-31T04:32:04;99300.80;;;6.07;71.03
46574;BME280;32299;53.366;-1.544;2023-01-31T04:34:31;99292.45;;;6.23;70.52
46574;BME280;32299;53.366;-1.544;2023-01-31T04:36:58;99297.62;;;5.70;72.77
46574;BME280;32299;53.366;-1.544;2023-01-31T04:39:25;99292.64;;;6.09;71.11
46574;BME280;32299;53.366;-1.544;2023-01-31T04:41:52;99292.46;;;6.65;69.99
46574;BME280;32299;53.366;-1.544;2023-01-31T04:44:19;99290.72;;;5.89;71.77
46574;BME280;32299;53.366;-1.544;2023-01-31T04:46:46;99288.98;;;6.15;71.73
46574;BME280;32299;53.366;-1.544;2023-01-31T04:49:14;99282.13;;;5.65;74.87
46574;BME280;32299;53.366;-1.544;2023-01-31T04:51:41;99276.44;;;5.11;75.03
46574;BME280;32299;53.366;-1.544;2023-01-31T04:54:08;99280.95;;;6.03;72.68
46574;BME280;32299;53.366;-1.544;2023-01-31T04:56:35;99273.20;;;5.98;72.56
46574;BME280;32299;53.366;-1.544;2023-01-31T04:59:02;99262.97;;;5.69;73.15
46574;BME280;32299;53.366;-1.544;2023-01-31T05:01:29;99264.82;;;6.74;71.29
46574;BME280;32299;53.366;-1.544;2023-01-31T05:03:56;99256.65;;;6.18;71.61
46574;BME280;32299;53.366;-1.544;2023-01-31T05:06:24;99245.47;;;5.63;75.35
46574;BME280;32299;53.366;-1.544;2023-01-31T05:08:51;99248.10;;;5.21;77.11
46574;BME280;32299;53.366;-1.544;2023-01-31T05:11:18;99230.31;;;5.85;75.52
46574;BME280;32299;53.366;-1.544;2023-01-31T05:13:45;99227.53;;;5.60;76.12
46574;BME280;32299;53.366;-1.544;2023-01-31T05:16:12;99229.17;;;5.20;77.10
46574;BME280;32299;53.366;-1.544;2023-01-31T05:18:40;99229.73;;;5.69;77.20
46574;BME280;32299;53.366;-1.544;2023-01-31T05:21:07;99223.40;;;5.21;79.98
46574;BME280;32299;53.366;-1.544;2023-01-31T05:23:34;99221.90;;;5.64;77.41
46574;BME280;32299;53.366;-1.544;2023-01-31T05:26:01;99222.96;;;5.84;76.74
46574;BME280;32299;53.366;-1.544;2023-01-31T05:28:28;99220.26;;;5.40;78.14
46574;BME280;32299;53.366;-1.544;2023-01-31T05:31:02;99224.15;;;4.70;81.50
46574;BME280;32299;53.366;-1.544;2023-01-31T05:33:29;99213.34;;;5.29;81.23
46574;BME280;32299;53.366;-1.544;2023-01-31T05:35:57;99221.29;;;5.49;79.66
46574;BME280;32299;53.366;-1.544;2023-01-31T05:38:24;99221.44;;;5.13;83.28
46574;BME280;32299;53.366;-1.544;2023-01-31T05:40:51;99215.59;;;4.84;83.09
46574;BME280;32299;53.366;-1.544;2023-01-31T05:43:18;99206.60;;;5.30;80.63
46574;BME280;32299;53.366;-1.544;2023-01-31T05:45:47;99212.08;;;5.11;80.99
46574;BME280;32299;53.366;-1.544;2023-01-31T05:48:14;99211.44;;;5.05;83.19
46574;BME280;32299;53.366;-1.544;2023-01-31T05:50:41;99191.50;;;5.63;81.02
46574;BME280;32299;53.366;-1.544;2023-01-31T05:53:08;99201.61;;;5.75;78.99
46574;BME280;32299;53.366;-1.544;2023-01-31T05:55:35;99184.03;;;6.02;78.30
46574;BME280;32299;53.366;-1.544;2023-01-31T05:58:02;99179.64;;;5.34;80.61
46574;BME280;32299;53.366;-1.544;2023-01-31T06:00:29;99173.27;;;6.24;80.49
46574;BME280;32299;53.366;-1.544;2023-01-31T06:02:57;99177.51;;;6.00;79.56
46574;BME280;32299;53.366;-1.544;2023-01-31T06:05:24;99168.30;;;5.43;81.99
46574;BME280;32299;53.366;-1.544;2023-01-31T06:07:51;99170.21;;;5.99;79.26
46574;BME280;32299;53.366;-1.544;2023-01-31T06:10:18;99163.68;;;5.21;82.91
46574;BME280;32299;53.366;-1.544;2023-01-31T06:12:45;99159.63;;;5.03;83.67
46574;BME280;32299;53.366;-1.544;2023-01-31T06:15:12;99157.53;;;6.09;78.74
46574;BME280;32299;53.366;-1.544;2023-01-31T06:17:39;99153.18;;;6.16;78.39
46574;BME280;32299;53.366;-1.544;2023-01-31T06:20:07;99156.10;;;5.35;80.11
46574;BME280;32299;53.366;-1.544;2023-01-31T06:22:35;99154.80;;;5.73;80.88
46574;BME280;32299;53.366;-1.544;2023-01-31T06:25:02;99160.87;;;5.61;81.01
46574;BME280;32299;53.366;-1.544;2023-01-31T06:27:31;99159.00;;;4.93;84.00
46574;BME280;32299;53.366;-1.544;2023-01-31T06:29:59;99155.47;;;5.60;81.54
46574;BME280;32299;53.366;-1.544;2023-01-31T06:32:26;99153.35;;;5.32;81.38
46574;BME280;32299;53.366;-1.544;2023-01-31T06:34:53;99154.57;;;5.52;80.92
46574;BME280;32299;53.366;-1.544;2023-01-31T06:37:20;99156.32;;;5.19;82.13
46574;BME280;32299;53.366;-1.544;2023-01-31T06:39:48;99159.18;;;5.81;81.51
46574;BME280;32299;53.366;-1.544;2023-01-31T06:42:14;99150.40;;;5.78;80.01
46574;BME280;32299;53.366;-1.544;2023-01-31T06:44:41;99148.04;;;5.64;79.26
46574;BME280;32299;53.366;-1.544;2023-01-31T06:47:08;99156.62;;;6.19;78.42
46574;BME280;32299;53.366;-1.544;2023-01-31T06:49:35;99154.71;;;6.04;78.41
46574;BME280;32299;53.366;-1.544;2023-01-31T06:52:03;99160.93;;;5.03;83.20
46574;BME280;32299;53.366;-1.544;2023-01-31T06:54:30;99142.49;;;4.96;82.06
46574;BME280;32299;53.366;-1.544;2023-01-31T06:56:57;99154.20;;;5.78;80.68
46574;BME280;32299;53.366;-1.544;2023-01-31T06:59:24;99145.79;;;5.58;79.86
46574;BME280;32299;53.366;-1.544;2023-01-31T07:01:51;99146.22;;;6.03;79.62
46574;BME280;32299;53.366;-1.544;2023-01-31T07:04:18;99150.55;;;5.33;81.64
46574;BME280;32299;53.366;-1.544;2023-01-31T07:06:45;99142.51;;;6.30;80.57
46574;BME280;32299;53.366;-1.544;2023-01-31T07:09:12;99140.57;;;4.75;85.03
46574;BME280;32299;53.366;-1.544;2023-01-31T07:11:39;99142.39;;;5.41;83.49
46574;BME280;32299;53.366;-1.544;2023-01-31T07:14:06;99154.69;;;5.99;82.40
46574;BME280;32299;53.366;-1.544;2023-01-31T07:16:33;99144.22;;;4.99;83.92
46574;BME280;32299;53.366;-1.544;2023-01-31T07:19:00;99141.60;;;4.99;83.67
46574;BME280;32299;53.366;-1.544;2023-01-31T07:21:27;99145.67;;;5.81;80.92
46574;BME280;32299;53.366;-1.544;2023-01-31T07:23:55;99136.07;;;5.70;81.63
46574;BME280;32299;53.366;-1.544;2023-01-31T07:26:21;99141.66;;;5.89;81.90
46574;BME280;32299;53.366;-1.544;2023-01-31T07:28:48;99137.42;;;5.98;81.14
46574;BME280;32299;53.366;-1.544;2023-01-31T07:31:15;99137.09;;;5.85;82.16
46574;BME280;32299;53.366;-1.544;2023-01-31T07:33:42;99139.14;;;5.77;81.99
46574;BME280;32299;53.366;-1.544;2023-01-31T07:36:12;99133.80;;;6.09;81.00
46574;BME280;32299;53.366;-1.544;2023-01-31T07:38:41;99139.30;;;5.61;80.50
46574;BME280;32299;53.366;-1.544;2023-01-31T07:41:09;99134.24;;;5.89;81.76
46574;BME280;32299;53.366;-1.544;2023-01-31T07:43:37;99142.55;;;5.98;82.91
46574;BME280;32299;53.366;-1.544;2023-01-31T07:46:05;99137.83;;;5.85;83.59
